createdAt,value
2022-12-11T00:01:36.599Z,18.07
2022-12-11T00:04:03.073Z,18.17
2022-12-11T00:06:29.417Z,17.77
2022-12-11T00:08:55.767Z,17.00
2022-12-11T00:11:22.680Z,15.83
2022-12-11T00:13:48.962Z,16.20
2022-12-11T00:16:15.599Z,15.60
2022-12-11T00:18:42.565Z,14.47
2022-12-11T00:21:14.695Z,16.13
2022-12-11T00:23:41.840Z,15.47
2022-12-11T00:26:11.894Z,18.87
2022-12-11T00:28:38.304Z,18.17
2022-12-11T00:31:09.559Z,17.47
2022-12-11T00:33:35.889Z,17.27
2022-12-11T00:36:02.331Z,16.67
2022-12-11T00:38:28.648Z,17.07
2022-12-11T00:40:58.870Z,16.00
2022-12-11T00:43:25.130Z,14.75
2022-12-11T00:45:51.494Z,15.17
2022-12-11T00:48:17.840Z,14.97
2022-12-11T00:50:44.133Z,15.23
2022-12-11T00:53:10.607Z,14.50
2022-12-11T00:55:38.935Z,16.20
2022-12-11T00:58:05.677Z,12.17
2022-12-11T01:00:32.425Z,12.47
2022-12-11T01:02:58.921Z,13.37
2022-12-11T01:05:25.467Z,13.20
2022-12-11T01:07:51.860Z,14.00
2022-12-11T01:10:18.484Z,14.80
2022-12-11T01:12:44.854Z,13.30
2022-12-11T01:15:11.732Z,15.03
2022-12-11T01:17:38.450Z,13.20
2022-12-11T01:20:05.782Z,14.83
2022-12-11T01:22:32.120Z,13.80
2022-12-11T01:24:58.403Z,12.50
2022-12-11T01:27:24.889Z,11.57
2022-12-11T01:29:51.312Z,12.30
2022-12-11T01:32:17.617Z,12.10
2022-12-11T01:34:43.976Z,12.50
2022-12-11T01:37:10.395Z,14.20
2022-12-11T01:39:37.098Z,12.50
2022-12-11T01:42:03.577Z,12.93
2022-12-11T01:44:29.854Z,12.07
2022-12-11T01:46:56.218Z,12.67
2022-12-11T01:49:26.671Z,13.70
2022-12-11T01:52:10.497Z,14.55
2022-12-11T01:54:37.109Z,13.73
2022-12-11T01:57:06.518Z,14.43
2022-12-11T01:59:36.391Z,14.83
2022-12-11T02:02:07.559Z,10.53
2022-12-11T02:04:37.626Z,12.70
2022-12-11T02:07:04.282Z,12.70
2022-12-11T02:09:37.155Z,12.73
2022-12-11T02:12:12.383Z,12.00
2022-12-11T02:15:00.359Z,13.77
2022-12-11T02:17:42.142Z,12.90
2022-12-11T02:20:31.103Z,11.77
2022-12-11T02:23:24.882Z,12.97
2022-12-11T02:26:15.822Z,13.77
2022-12-11T02:28:48.246Z,15.23
2022-12-11T02:31:20.566Z,15.77
2022-12-11T02:33:54.938Z,15.10
2022-12-11T02:36:25.252Z,14.90
2022-12-11T02:38:54.581Z,16.48
2022-12-11T02:41:23.048Z,15.53
2022-12-11T02:43:50.910Z,17.60
2022-12-11T02:46:20.586Z,16.73
2022-12-11T02:48:50.539Z,16.83
2022-12-11T02:51:33.922Z,17.08
2022-12-11T02:54:01.039Z,17.90
2022-12-11T02:56:36.895Z,18.13
2022-12-11T02:59:08.470Z,17.10
2022-12-11T03:01:35.093Z,18.43
2022-12-11T03:04:03.941Z,16.30
2022-12-11T03:06:37.648Z,17.93
2022-12-11T03:09:05.585Z,16.77
2022-12-11T03:11:32.007Z,15.73
2022-12-11T03:14:00.093Z,15.00
2022-12-11T03:16:35.234Z,14.93
2022-12-11T03:19:20.570Z,14.70
2022-12-11T03:21:55.102Z,16.47
2022-12-11T03:24:29.617Z,15.87
2022-12-11T03:27:01.422Z,16.30
2022-12-11T03:29:35.920Z,15.80
2022-12-11T03:32:10.603Z,14.50
2022-12-11T03:34:36.878Z,16.80
2022-12-11T03:37:07.278Z,15.70
2022-12-11T03:39:38.749Z,17.65
2022-12-11T03:42:09.217Z,16.13
2022-12-11T03:44:36.767Z,17.33
2022-12-11T03:47:06.743Z,17.40
2022-12-11T03:49:40.057Z,16.95
2022-12-11T03:52:09.404Z,16.73
2022-12-11T03:54:36.531Z,14.23
2022-12-11T03:57:05.130Z,15.57
2022-12-11T03:59:31.453Z,16.73
2022-12-11T04:01:58.025Z,15.93
2022-12-11T04:04:24.536Z,14.77
2022-12-11T04:06:51.983Z,17.37
2022-12-11T04:09:18.444Z,17.50
2022-12-11T04:11:44.775Z,17.87
2022-12-11T04:14:14.016Z,19.13
2022-12-11T04:16:40.403Z,17.57
2022-12-11T04:19:06.711Z,20.10
2022-12-11T04:21:39.119Z,17.53
2022-12-11T04:24:06.314Z,18.87
2022-12-11T04:26:32.633Z,18.60
2022-12-11T04:28:58.930Z,17.83
2022-12-11T04:31:25.285Z,17.67
2022-12-11T04:33:51.673Z,17.97
2022-12-11T04:36:18.004Z,18.47
2022-12-11T04:38:44.320Z,18.60
2022-12-11T04:41:13.588Z,19.33
2022-12-11T04:43:40.392Z,19.30
2022-12-11T04:46:13.338Z,18.90
2022-12-11T04:48:41.220Z,16.80
2022-12-11T04:51:08.022Z,17.57
2022-12-11T04:53:34.940Z,18.63
2022-12-11T04:56:01.588Z,18.30
2022-12-11T04:58:28.317Z,18.83
2022-12-11T05:00:54.725Z,24.37
2022-12-11T05:03:21.139Z,19.93
2022-12-11T05:05:51.825Z,16.53
2022-12-11T05:08:20.376Z,17.17
2022-12-11T05:11:04.098Z,13.83
2022-12-11T05:13:30.511Z,15.90
2022-12-11T05:15:57.509Z,14.63
2022-12-11T05:18:24.303Z,13.37
2022-12-11T05:21:05.682Z,13.73
2022-12-11T05:23:32.529Z,13.87
2022-12-11T05:26:02.143Z,15.63
2022-12-11T05:28:31.941Z,15.27
2022-12-11T05:31:00.686Z,14.70
2022-12-11T05:33:28.145Z,14.67
2022-12-11T05:35:54.938Z,13.13
2022-12-11T05:38:21.378Z,15.67
2022-12-11T05:40:57.806Z,13.70
2022-12-11T05:43:24.751Z,12.77
2022-12-11T05:45:51.050Z,14.27
2022-12-11T05:48:17.414Z,14.37
2022-12-11T05:50:43.758Z,14.37
2022-12-11T05:53:10.095Z,13.43
2022-12-11T05:55:36.539Z,13.63
2022-12-11T05:58:02.954Z,15.20
2022-12-11T06:00:32.969Z,14.70
2022-12-11T06:03:02.342Z,15.37
2022-12-11T06:05:28.748Z,14.07
2022-12-11T06:07:55.127Z,14.47
2022-12-11T06:10:21.478Z,15.93
2022-12-11T06:12:47.784Z,15.20
2022-12-11T06:15:14.136Z,15.43
2022-12-11T06:17:40.418Z,15.77
2022-12-11T06:20:06.987Z,16.03
2022-12-11T06:22:33.276Z,16.57
2022-12-11T06:24:59.702Z,15.60
2022-12-11T06:27:25.990Z,15.70
2022-12-11T06:29:52.327Z,14.40
2022-12-11T06:32:18.733Z,16.77
2022-12-11T06:34:45.076Z,15.33
2022-12-11T06:37:11.423Z,14.90
2022-12-11T06:39:37.732Z,15.03
2022-12-11T06:42:04.169Z,15.40
2022-12-11T06:44:30.509Z,16.27
2022-12-11T06:46:59.273Z,15.37
2022-12-11T06:49:25.643Z,15.90
2022-12-11T06:51:51.962Z,14.80
2022-12-11T06:54:18.277Z,15.90
2022-12-11T06:56:44.617Z,15.90
2022-12-11T06:59:12.120Z,16.60
2022-12-11T07:01:38.435Z,16.40
2022-12-11T07:04:04.790Z,15.87
2022-12-11T07:06:31.171Z,14.47
2022-12-11T07:08:57.497Z,14.97
2022-12-11T07:11:24.365Z,15.10
2022-12-11T07:13:50.841Z,15.93
2022-12-11T07:16:18.407Z,16.27
2022-12-11T07:18:48.432Z,16.00
2022-12-11T07:21:15.119Z,17.08
2022-12-11T07:23:42.015Z,16.43
2022-12-11T07:26:11.219Z,17.67
2022-12-11T07:28:37.606Z,17.87
2022-12-11T07:31:09.338Z,16.20
2022-12-11T07:33:36.132Z,17.77
2022-12-11T07:36:04.694Z,17.63
2022-12-11T07:38:31.296Z,14.27
2022-12-11T07:41:04.817Z,14.40
2022-12-11T07:43:31.733Z,15.23
2022-12-11T07:46:06.763Z,15.60
2022-12-11T07:48:36.135Z,14.70
2022-12-11T07:51:15.252Z,15.00
2022-12-11T07:53:46.872Z,15.43
2022-12-11T07:56:13.452Z,14.63
2022-12-11T07:58:39.832Z,14.53
2022-12-11T08:01:10.388Z,14.57
2022-12-11T08:03:36.709Z,14.55
2022-12-11T08:06:03.180Z,15.00
2022-12-11T08:08:29.630Z,15.47
2022-12-11T08:10:56.075Z,15.63
2022-12-11T08:13:22.373Z,16.00
2022-12-11T08:15:48.711Z,16.80
2022-12-11T08:18:15.068Z,16.07
2022-12-11T08:20:41.368Z,16.13
2022-12-11T08:23:07.697Z,15.07
2022-12-11T08:25:34.143Z,15.60
2022-12-11T08:28:00.466Z,14.07
2022-12-11T08:30:27.095Z,14.43
2022-12-11T08:32:53.544Z,15.27
2022-12-11T08:35:19.932Z,15.93
2022-12-11T08:37:46.308Z,16.03
2022-12-11T08:40:12.848Z,17.07
2022-12-11T08:42:39.175Z,15.90
2022-12-11T08:45:06.203Z,14.10
2022-12-11T08:47:32.567Z,15.90
2022-12-11T08:49:58.930Z,19.80
2022-12-11T08:52:25.255Z,16.60
2022-12-11T08:54:51.531Z,18.43
2022-12-11T08:57:17.935Z,17.07
2022-12-11T08:59:44.309Z,15.57
2022-12-11T09:02:13.796Z,16.37
2022-12-11T09:04:40.146Z,16.20
2022-12-11T09:07:06.535Z,15.60
2022-12-11T09:09:32.812Z,15.93
2022-12-11T09:11:59.171Z,15.30
2022-12-11T09:14:25.571Z,14.87
2022-12-11T09:16:51.904Z,14.23
2022-12-11T09:19:18.230Z,14.47
2022-12-11T09:21:45.078Z,14.40
2022-12-11T09:24:12.710Z,15.27
2022-12-11T09:26:39.224Z,14.60
2022-12-11T09:29:06.554Z,14.10
2022-12-11T09:31:35.530Z,13.47
2022-12-11T09:34:05.370Z,14.67
2022-12-11T09:36:32.324Z,14.17
2022-12-11T09:39:03.837Z,14.53
2022-12-11T09:42:18.123Z,17.50
2022-12-11T09:45:01.790Z,14.23
2022-12-11T09:47:43.663Z,15.20
2022-12-11T09:50:10.090Z,14.73
2022-12-11T09:52:46.654Z,15.97
2022-12-11T09:55:17.361Z,16.03
2022-12-11T09:57:55.762Z,15.05
2022-12-11T10:00:39.876Z,15.53
2022-12-11T10:03:44.094Z,15.70
2022-12-11T10:06:15.444Z,16.73
2022-12-11T10:08:58.933Z,16.83
2022-12-11T10:11:39.001Z,16.83
2022-12-11T10:14:17.925Z,16.85
2022-12-11T10:16:59.563Z,17.37
2022-12-11T10:19:29.932Z,17.47
2022-12-11T10:21:57.201Z,17.27
2022-12-11T10:25:07.669Z,16.50
2022-12-11T10:27:23.963Z,16.70
2022-12-11T10:30:01.068Z,16.33
2022-12-11T10:32:50.472Z,17.27
2022-12-11T10:35:35.361Z,16.33
2022-12-11T10:38:14.870Z,17.60
2022-12-11T10:40:45.608Z,17.33
2022-12-11T10:43:12.476Z,16.67
2022-12-11T10:45:38.955Z,17.40
2022-12-11T10:48:09.749Z,17.00
2022-12-11T10:50:36.413Z,15.13
2022-12-11T10:53:02.899Z,15.33
2022-12-11T10:55:43.514Z,17.10
2022-12-11T10:58:18.597Z,16.70
2022-12-11T11:00:45.863Z,17.50
2022-12-11T11:03:23.247Z,16.10
2022-12-11T11:05:49.876Z,15.90
2022-12-11T11:08:22.515Z,16.10
2022-12-11T11:10:54.709Z,16.43
2022-12-11T11:13:24.346Z,16.10
2022-12-11T11:16:04.369Z,16.93
2022-12-11T11:18:32.632Z,16.65
2022-12-11T11:20:59.665Z,17.03
2022-12-11T11:23:27.020Z,16.53
2022-12-11T11:25:59.304Z,17.57
2022-12-11T11:28:29.215Z,16.73
2022-12-11T11:30:59.584Z,16.77
2022-12-11T11:33:26.413Z,13.05
2022-12-11T11:36:01.542Z,16.83
2022-12-11T11:38:57.283Z,16.13
2022-12-11T11:41:47.812Z,16.43
2022-12-11T11:44:19.863Z,15.20
2022-12-11T11:46:53.262Z,16.20
2022-12-11T11:49:46.802Z,16.00
2022-12-11T11:52:38.872Z,15.47
2022-12-11T11:55:21.713Z,16.27
2022-12-11T11:58:06.928Z,16.97
2022-12-11T12:00:34.198Z,16.97
2022-12-11T12:03:05.979Z,17.07
2022-12-11T12:05:45.641Z,15.57
2022-12-11T12:08:33.217Z,15.67
2022-12-11T12:11:30.206Z,15.80
2022-12-11T12:17:32.180Z,17.73
2022-12-11T12:20:21.969Z,16.77
2022-12-11T12:23:06.529Z,15.80
2022-12-11T12:25:55.864Z,16.67
2022-12-11T12:28:31.187Z,16.70
2022-12-11T12:31:09.629Z,16.27
2022-12-11T12:33:44.554Z,15.90
2022-12-11T12:36:26.960Z,16.30
2022-12-11T12:39:15.691Z,17.13
2022-12-11T12:41:44.836Z,15.57
2022-12-11T12:44:14.772Z,14.63
2022-12-11T12:47:00.593Z,13.97
2022-12-11T12:49:38.085Z,14.67
2022-12-11T12:52:10.298Z,14.87
2022-12-11T12:54:37.616Z,14.73
2022-12-11T12:57:04.622Z,16.47
2022-12-11T12:59:31.445Z,14.80
2022-12-11T13:02:01.884Z,14.97
2022-12-11T13:04:55.554Z,16.33
2022-12-11T13:07:27.082Z,15.93
2022-12-11T13:12:33.909Z,14.43
2022-12-11T13:15:00.841Z,16.83
2022-12-11T13:17:37.932Z,16.50
2022-12-11T13:20:19.097Z,18.23
2022-12-11T13:22:49.625Z,16.93
2022-12-11T13:25:50.336Z,15.57
2022-12-11T13:28:43.247Z,16.77
2022-12-11T13:31:15.728Z,16.13
2022-12-11T13:33:55.650Z,15.90
2022-12-11T13:36:31.841Z,17.37
2022-12-11T13:39:05.786Z,16.67
2022-12-11T13:41:36.489Z,15.73
2022-12-11T13:44:04.177Z,16.02
2022-12-11T13:46:35.419Z,17.70
2022-12-11T13:49:04.588Z,18.63
2022-12-11T13:51:34.036Z,16.67
2022-12-11T13:54:25.313Z,17.23
2022-12-11T13:56:59.410Z,16.00
2022-12-11T13:59:33.012Z,17.37
2022-12-11T14:02:04.265Z,15.20
2022-12-11T14:04:33.907Z,17.17
2022-12-11T14:07:01.732Z,17.20
2022-12-11T14:09:28.732Z,18.20
2022-12-11T14:11:57.121Z,19.00
2022-12-11T14:14:33.374Z,16.87
2022-12-11T14:17:01.334Z,16.93
2022-12-11T14:19:28.103Z,18.30
2022-12-11T14:21:56.103Z,16.27
2022-12-11T14:24:22.398Z,17.57
2022-12-11T14:26:53.770Z,16.80
2022-12-11T14:29:31.474Z,16.77
2022-12-11T14:32:04.154Z,16.93
2022-12-11T14:34:37.071Z,16.60
2022-12-11T14:37:07.531Z,18.40
2022-12-11T14:39:39.951Z,18.23
2022-12-11T14:42:17.549Z,17.70
2022-12-11T14:45:09.171Z,18.00
2022-12-11T14:47:42.104Z,18.43
2022-12-11T14:50:32.496Z,19.43
2022-12-11T14:53:04.040Z,18.15
2022-12-11T14:55:37.255Z,20.43
2022-12-11T14:58:24.005Z,19.33
2022-12-11T15:01:05.676Z,21.00
2022-12-11T15:03:34.895Z,20.83
2022-12-11T15:06:02.787Z,20.97
2022-12-11T15:08:31.973Z,21.10
2022-12-11T15:11:07.335Z,21.90
2022-12-11T15:13:36.184Z,20.07
2022-12-11T15:16:03.733Z,21.10
2022-12-11T15:18:34.005Z,20.87
2022-12-11T15:21:03.904Z,20.75
2022-12-11T15:23:30.607Z,20.90
2022-12-11T15:25:59.091Z,18.57
2022-12-11T15:28:33.939Z,17.80
2022-12-11T15:31:21.993Z,20.17
2022-12-11T15:33:48.392Z,19.47
2022-12-11T15:36:25.505Z,20.30
2022-12-11T15:38:52.052Z,18.97
2022-12-11T15:41:19.891Z,19.70
2022-12-11T15:43:47.385Z,19.30
2022-12-11T15:46:13.824Z,20.77
2022-12-11T15:48:40.231Z,21.83
2022-12-11T15:51:06.570Z,20.17
2022-12-11T15:53:32.972Z,19.77
2022-12-11T15:55:59.661Z,18.47
2022-12-11T15:58:26.235Z,18.43
2022-12-11T16:00:53.388Z,17.60
2022-12-11T16:03:21.697Z,18.53
2022-12-11T16:05:49.845Z,17.37
2022-12-11T16:08:19.747Z,17.43
2022-12-11T16:10:47.355Z,19.65
2022-12-11T16:13:14.394Z,16.80
2022-12-11T16:15:43.813Z,19.30
2022-12-11T16:18:16.187Z,23.03
2022-12-11T16:20:45.226Z,22.93
2022-12-11T16:23:12.685Z,26.13
2022-12-11T16:25:41.081Z,26.00
2022-12-11T16:28:08.706Z,24.47
2022-12-11T16:30:36.593Z,23.37
2022-12-11T16:33:11.811Z,22.90
2022-12-11T16:35:39.157Z,20.50
2022-12-11T16:38:05.511Z,21.90
2022-12-11T16:40:31.864Z,22.33
2022-12-11T16:42:58.180Z,21.70
2022-12-11T16:45:25.955Z,20.67
2022-12-11T16:47:52.583Z,19.43
2022-12-11T16:50:19.127Z,19.73
2022-12-11T16:52:45.862Z,19.33
2022-12-11T16:55:13.300Z,19.43
2022-12-11T16:57:40.059Z,20.73
2022-12-11T17:00:08.458Z,20.00
2022-12-11T17:02:35.763Z,18.13
2022-12-11T17:05:02.201Z,19.97
2022-12-11T17:07:28.510Z,24.90
2022-12-11T17:09:55.002Z,22.63
2022-12-11T17:12:21.593Z,23.63
2022-12-11T17:14:47.959Z,21.70
2022-12-11T17:17:14.300Z,21.03
2022-12-11T17:19:40.625Z,20.80
2022-12-11T17:22:06.931Z,22.23
2022-12-11T17:24:33.327Z,21.73
2022-12-11T17:26:59.668Z,24.03
2022-12-11T17:29:26.073Z,21.60
2022-12-11T17:31:52.409Z,22.70
2022-12-11T17:34:18.754Z,23.70
2022-12-11T17:36:45.067Z,23.87
2022-12-11T17:39:11.332Z,24.63
2022-12-11T17:41:37.755Z,21.53
2022-12-11T17:44:04.277Z,21.80
2022-12-11T17:46:30.645Z,20.90
2022-12-11T17:48:57.077Z,24.50
2022-12-11T17:51:23.393Z,22.33
2022-12-11T17:53:50.873Z,22.43
2022-12-11T17:56:17.368Z,22.27
2022-12-11T17:58:43.730Z,22.57
2022-12-11T18:01:10.938Z,21.83
2022-12-11T18:03:37.557Z,22.33
2022-12-11T18:06:08.174Z,20.13
2022-12-11T18:08:34.896Z,22.70
2022-12-11T18:11:16.037Z,22.17
2022-12-11T18:13:43.730Z,23.47
2022-12-11T18:16:16.419Z,22.57
2022-12-11T18:18:43.537Z,24.03
2022-12-11T18:21:13.489Z,22.47
2022-12-11T18:23:39.920Z,22.98
2022-12-11T18:26:06.195Z,24.40
2022-12-11T18:28:32.565Z,23.80
2022-12-11T18:31:00.617Z,26.30
2022-12-11T18:33:27.736Z,26.43
2022-12-11T18:35:54.084Z,25.03
2022-12-11T18:38:20.452Z,24.27
2022-12-11T18:40:46.732Z,23.77
2022-12-11T18:43:13.087Z,24.77
2022-12-11T18:45:42.897Z,25.87
2022-12-11T18:48:09.262Z,25.90
2022-12-11T18:50:35.784Z,25.50
2022-12-11T18:53:02.188Z,25.60
2022-12-11T18:55:28.502Z,28.23
2022-12-11T18:57:54.806Z,30.37
2022-12-11T19:00:21.474Z,29.87
2022-12-11T19:02:51.032Z,28.30
2022-12-11T19:05:17.512Z,26.53
2022-12-11T19:07:43.918Z,26.73
2022-12-11T19:10:10.567Z,26.73
2022-12-11T19:12:36.984Z,26.83
2022-12-11T19:15:03.604Z,25.50
2022-12-11T19:17:29.961Z,25.20
2022-12-11T19:19:56.314Z,24.97
2022-12-11T19:22:23.769Z,25.53
2022-12-11T19:24:50.084Z,23.10
2022-12-11T19:27:16.380Z,23.70
2022-12-11T19:29:42.780Z,23.43
2022-12-11T19:32:09.211Z,24.97
2022-12-11T19:34:35.810Z,24.47
2022-12-11T19:37:02.098Z,26.03
2022-12-11T19:39:28.405Z,24.47
2022-12-11T19:41:54.757Z,24.13
2022-12-11T19:44:21.146Z,24.67
2022-12-11T19:46:47.603Z,24.20
2022-12-11T19:49:14.053Z,26.03
2022-12-11T19:51:41.734Z,26.30
2022-12-11T19:54:11.991Z,25.50
2022-12-11T19:56:38.512Z,27.67
2022-12-11T19:59:07.939Z,30.90
2022-12-11T20:01:37.156Z,29.83
2022-12-11T20:04:07.360Z,31.87
2022-12-11T20:06:36.993Z,31.08
2022-12-11T20:09:05.458Z,30.07
2022-12-11T20:11:33.214Z,29.93
2022-12-11T20:13:59.986Z,26.50
2022-12-11T20:16:46.383Z,25.20
2022-12-11T20:19:12.895Z,23.90
2022-12-11T20:21:39.211Z,23.30
2022-12-11T20:24:05.903Z,21.60
2022-12-11T20:26:32.249Z,24.40
2022-12-11T20:28:58.768Z,29.03
2022-12-11T20:31:25.994Z,27.90
2022-12-11T20:33:55.447Z,26.50
2022-12-11T20:36:23.415Z,26.47
2022-12-11T20:38:50.421Z,25.63
2022-12-11T20:41:19.463Z,24.63
2022-12-11T20:43:46.318Z,23.47
2022-12-11T20:46:14.294Z,23.97
2022-12-11T20:48:42.860Z,23.53
2022-12-11T20:51:11.209Z,24.77
2022-12-11T20:53:38.040Z,24.23
2022-12-11T20:56:16.185Z,22.07
2022-12-11T20:58:43.527Z,22.93
2022-12-11T21:01:32.804Z,22.20
2022-12-11T21:03:59.719Z,23.20
2022-12-11T21:06:34.896Z,23.60
2022-12-11T21:09:05.890Z,23.23
2022-12-11T21:11:32.392Z,22.83
2022-12-11T21:13:58.975Z,23.63
2022-12-11T21:16:25.381Z,25.63
2022-12-11T21:18:51.792Z,25.43
2022-12-11T21:21:18.351Z,22.77
2022-12-11T21:23:44.947Z,23.30
2022-12-11T21:26:12.239Z,25.27
2022-12-11T21:28:38.668Z,24.87
2022-12-11T21:31:08.943Z,25.03
2022-12-11T21:33:35.989Z,23.27
2022-12-11T21:36:05.461Z,24.77
2022-12-11T21:38:31.772Z,23.50
2022-12-11T21:40:58.165Z,23.57
2022-12-11T21:43:24.495Z,23.57
2022-12-11T21:46:06.773Z,19.73
2022-12-11T21:48:33.388Z,19.83
2022-12-11T21:51:34.101Z,20.87
2022-12-11T21:54:03.419Z,21.90
2022-12-11T21:56:29.820Z,21.80
2022-12-11T21:58:56.229Z,20.30
2022-12-11T22:01:26.865Z,21.93
2022-12-11T22:03:53.717Z,19.98
2022-12-11T22:06:21.323Z,20.57
2022-12-11T22:08:48.446Z,20.17
2022-12-11T22:11:18.292Z,19.43
2022-12-11T22:13:44.735Z,19.88
2022-12-11T22:16:11.236Z,21.97
2022-12-11T22:18:37.679Z,22.13
2022-12-11T22:21:04.192Z,22.17
2022-12-11T22:23:30.763Z,23.83
2022-12-11T22:25:57.416Z,24.67
2022-12-11T22:28:23.925Z,24.27
2022-12-11T22:30:50.644Z,24.17
2022-12-11T22:33:17.068Z,24.77
2022-12-11T22:35:43.362Z,26.17
2022-12-11T22:38:09.726Z,27.17
2022-12-11T22:40:40.352Z,25.87
2022-12-11T22:43:07.262Z,25.98
2022-12-11T22:45:38.517Z,26.07
2022-12-11T22:48:05.574Z,25.63
2022-12-11T22:50:31.930Z,27.07
2022-12-11T22:52:58.278Z,24.93
2022-12-11T22:55:24.607Z,26.67
2022-12-11T22:57:50.981Z,27.77
2022-12-11T23:00:17.656Z,28.03
2022-12-11T23:02:44.085Z,28.53
2022-12-11T23:05:11.615Z,26.20
2022-12-11T23:07:38.735Z,27.40
2022-12-11T23:10:07.674Z,25.53
2022-12-11T23:12:34.685Z,24.37
2022-12-11T23:15:00.978Z,25.93
2022-12-11T23:17:27.309Z,28.90
2022-12-11T23:19:53.708Z,26.97
2022-12-11T23:22:20.034Z,30.77
2022-12-11T23:24:47.367Z,29.33
2022-12-11T23:27:13.738Z,26.73
2022-12-11T23:29:40.045Z,25.43
2022-12-11T23:32:06.387Z,25.40
2022-12-11T23:34:32.745Z,24.03
2022-12-11T23:36:59.032Z,25.27
2022-12-11T23:39:25.394Z,22.90
2022-12-11T23:41:51.694Z,24.10
2022-12-11T23:44:18.034Z,24.37
2022-12-11T23:46:44.361Z,24.87
2022-12-11T23:49:10.894Z,24.60
2022-12-11T23:51:37.268Z,24.73
2022-12-11T23:54:03.690Z,25.70
2022-12-11T23:56:30.042Z,24.67
2022-12-11T23:58:57.495Z,25.60
